Springbok, South Africa
Current Conditions -  °F | °C
As of 12:41 PM on Tuesday 21 Oct 2014 (Local Time) from FAUP Reporting Station
Clear Clear  
Wind Chill: 95°   Ceiling: Unl
Heat Index: 95°   Visibility: 6mi
Dew Point: 23°   Wind: 6mph
Humidity: 7%   Direction: 240°WSW
Pressure: 29.97"   Gusts: NA
Location:  29.67°S, 17.88°E
Report Text: FAUP 211041Z 24005KT CAVOK 35/M05 Q1015 NOSIG
Loading
Personal Weather Stations






























Interactive Weather Map
Tropical Storm Tracking
New forecast layout! Learn more

10-Day Weather Forecast

Advertisements
Track Severe Weather on mobile